createdAt,value
2023-02-02T00:01:46.869Z,-1.77
2023-02-02T00:04:26.559Z,-1.77
2023-02-02T00:06:57.350Z,-1.78
2023-02-02T00:09:29.215Z,-1.80
2023-02-02T00:11:59.569Z,-1.81
2023-02-02T00:14:28.675Z,-1.81
2023-02-02T00:16:57.608Z,-1.81
2023-02-02T00:19:28.227Z,-1.81
2023-02-02T00:21:57.151Z,-1.80
2023-02-02T00:24:25.747Z,-1.79
2023-02-02T00:26:58.566Z,-1.78
2023-02-02T00:29:28.771Z,-1.77
2023-02-02T00:31:57.468Z,-1.77
2023-02-02T00:34:25.989Z,-1.76
2023-02-02T00:36:54.521Z,-1.75
2023-02-02T00:39:28.251Z,-1.76
2023-02-02T00:41:57.119Z,-1.76
2023-02-02T00:44:44.647Z,-1.75
2023-02-02T00:47:14.152Z,-1.76
2023-02-02T00:49:42.857Z,-1.75
2023-02-02T00:52:12.751Z,-1.74
2023-02-02T00:54:41.647Z,-1.74
2023-02-02T00:57:13.968Z,-1.74
2023-02-02T00:59:42.985Z,-1.74
2023-02-02T01:02:12.461Z,-1.72
2023-02-02T01:04:41.420Z,-1.71
2023-02-02T01:07:10.327Z,-1.69
2023-02-02T01:09:39.221Z,-1.70
2023-02-02T01:12:11.078Z,-1.72
2023-02-02T01:14:39.729Z,-1.70
2023-02-02T01:17:09.804Z,-1.68
2023-02-02T01:19:38.948Z,-1.68
2023-02-02T01:22:08.257Z,-1.68
2023-02-02T01:24:37.338Z,-1.67
2023-02-02T01:27:06.034Z,-1.67
2023-02-02T01:29:34.972Z,-1.65
2023-02-02T01:32:03.625Z,-1.62
2023-02-02T01:34:33.309Z,-1.62
2023-02-02T01:37:02.389Z,-1.63
2023-02-02T01:39:31.358Z,-1.64
2023-02-02T01:42:00.761Z,-1.62
2023-02-02T01:45:06.759Z,-1.63
2023-02-02T01:47:52.715Z,-1.64
2023-02-02T01:50:23.393Z,-1.64
2023-02-02T01:52:54.421Z,-1.64
2023-02-02T01:55:25.206Z,-1.64
2023-02-02T01:58:11.544Z,-1.64
2023-02-02T02:00:40.391Z,-1.63
2023-02-02T02:03:13.235Z,-1.63
2023-02-02T02:05:45.287Z,-1.61
2023-02-02T02:08:17.579Z,-1.60
2023-02-02T06:19:33.740Z,-1.17
2023-02-02T06:22:02.289Z,-0.95
2023-02-02T06:24:31.287Z,-0.84
2023-02-02T06:27:00.099Z,-0.82
2023-02-02T06:29:28.796Z,-0.81
2023-02-02T06:31:57.618Z,-0.79
2023-02-02T06:34:26.255Z,-0.78
2023-02-02T06:36:54.985Z,-0.77
2023-02-02T06:39:23.797Z,-0.76
2023-02-02T06:41:52.508Z,-0.74
2023-02-02T06:44:21.260Z,-0.71
2023-02-02T06:46:50.191Z,-0.68
2023-02-02T06:49:18.670Z,-0.66
2023-02-02T06:51:48.782Z,-0.66
2023-02-02T06:54:18.938Z,-0.64
2023-02-02T06:56:47.438Z,-0.62
2023-02-02T06:59:15.963Z,-0.60
2023-02-02T07:01:44.683Z,-0.60
2023-02-02T07:04:13.815Z,-0.57
2023-02-02T07:06:42.590Z,-0.54
2023-02-02T07:09:11.184Z,-0.51
2023-02-02T07:11:43.685Z,-0.49
2023-02-02T07:14:15.090Z,-0.46
2023-02-02T07:16:44.808Z,-0.44
2023-02-02T07:19:13.832Z,-0.43
2023-02-02T07:21:43.129Z,-0.42
2023-02-02T07:24:11.821Z,-0.41
2023-02-02T07:26:41.032Z,-0.40
2023-02-02T07:29:14.600Z,-0.42
2023-02-02T07:31:43.612Z,-0.41
2023-02-02T07:34:13.098Z,-0.39
2023-02-02T07:36:42.936Z,-0.37
2023-02-02T07:39:11.930Z,-0.37
2023-02-02T07:41:40.856Z,-0.37
2023-02-02T07:44:16.632Z,-0.38
2023-02-02T07:46:47.516Z,-0.40
2023-02-02T07:49:17.673Z,-0.38
2023-02-02T07:51:49.327Z,-0.36
2023-02-02T07:54:18.126Z,-0.36
2023-02-02T07:56:47.292Z,-0.35
2023-02-02T07:59:15.852Z,-0.35
2023-02-02T08:01:48.236Z,-0.32
2023-02-02T08:04:17.609Z,-0.29
2023-02-02T08:06:46.429Z,-0.26
2023-02-02T08:09:14.947Z,-0.21
2023-02-02T08:32:22.749Z,0.23
2023-02-02T08:34:56.018Z,0.36
2023-02-02T08:37:24.453Z,0.43
2023-02-02T08:39:53.165Z,0.53
2023-02-02T08:42:21.720Z,0.64
2023-02-02T08:46:00.355Z,0.78
2023-02-02T08:47:42.700Z,0.81
2023-02-02T08:50:13.519Z,0.78
2023-02-02T08:52:44.461Z,0.79
2023-02-02T08:55:16.843Z,0.81
2023-02-02T08:57:47.870Z,0.82
2023-02-02T09:00:20.746Z,0.79
2023-02-02T09:02:52.805Z,0.76
2023-02-02T09:05:24.387Z,0.75
2023-02-02T09:07:55.311Z,0.75
2023-02-02T09:10:25.943Z,0.69
2023-02-02T09:12:57.590Z,0.71
2023-02-02T09:15:29.662Z,0.79
2023-02-02T09:18:00.395Z,0.91
2023-02-02T09:20:33.811Z,0.97
2023-02-02T09:23:04.524Z,0.94
2023-02-02T09:25:36.284Z,0.99
2023-02-02T09:28:07.838Z,1.13
2023-02-02T09:30:40.449Z,1.20
2023-02-02T09:33:11.763Z,1.22
2023-02-02T09:35:45.342Z,1.22
2023-02-02T09:38:15.704Z,1.21
2023-02-02T09:40:44.478Z,1.19
2023-02-02T09:43:35.192Z,1.12
2023-02-02T09:46:12.840Z,1.02
2023-02-02T09:49:07.952Z,0.96
2023-02-02T09:51:41.082Z,0.96
2023-02-02T09:54:15.701Z,1.00
2023-02-02T09:56:44.939Z,1.00
2023-02-02T09:59:24.814Z,1.01
2023-02-02T10:01:58.545Z,1.02
2023-02-02T10:04:27.168Z,1.04
2023-02-02T10:06:58.027Z,1.07
2023-02-02T10:09:56.351Z,1.12
2023-02-02T10:12:37.421Z,1.12
2023-02-02T10:15:24.873Z,1.10
2023-02-02T10:18:44.051Z,1.08
2023-02-02T10:21:19.368Z,1.08
2023-02-02T10:23:48.670Z,1.13
2023-02-02T10:27:30.181Z,1.16
2023-02-02T10:30:02.836Z,1.19
2023-02-02T10:33:37.567Z,1.23
2023-02-02T10:36:18.385Z,1.25
2023-02-02T10:39:00.995Z,1.34
2023-02-02T10:41:59.301Z,1.49
2023-02-02T10:44:41.770Z,1.55
2023-02-02T10:47:13.249Z,1.56
2023-02-02T10:49:41.920Z,1.53
2023-02-02T10:52:11.382Z,1.49
2023-02-02T10:54:57.423Z,1.43
2023-02-02T10:58:01.224Z,1.39
2023-02-02T11:00:39.424Z,1.32
2023-02-02T11:03:09.732Z,1.32
2023-02-02T11:05:57.168Z,1.36
2023-02-02T11:08:30.752Z,1.40
2023-02-02T11:11:19.247Z,1.50
2023-02-02T11:14:10.620Z,1.62
2023-02-02T11:16:44.244Z,1.71
2023-02-02T11:19:22.440Z,1.70
2023-02-02T11:21:53.666Z,1.64
2023-02-02T11:24:23.368Z,1.63
2023-02-02T11:26:56.143Z,1.62
2023-02-02T11:29:28.121Z,1.62
2023-02-02T11:31:57.072Z,1.59
2023-02-02T11:34:27.111Z,1.56
2023-02-02T11:37:13.390Z,1.56
2023-02-02T11:39:43.817Z,1.54
2023-02-02T11:42:15.086Z,1.57
2023-02-02T11:44:56.060Z,1.61
2023-02-02T11:47:29.506Z,1.66
2023-02-02T11:49:59.687Z,1.73
2023-02-02T11:52:32.705Z,1.79
2023-02-02T11:55:02.459Z,1.79
2023-02-02T11:57:31.899Z,1.80
2023-02-02T12:00:17.781Z,1.82
2023-02-02T12:02:48.755Z,1.89
2023-02-02T12:05:20.455Z,1.97
2023-02-02T12:07:49.812Z,1.94
2023-02-02T12:10:42.223Z,1.86
2023-02-02T12:13:43.826Z,1.80
2023-02-02T12:16:26.488Z,1.71
2023-02-02T12:19:17.489Z,1.63
2023-02-02T12:22:19.538Z,1.57
2023-02-02T12:25:14.608Z,1.49
2023-02-02T12:27:43.712Z,1.44
2023-02-02T12:30:28.696Z,1.39
2023-02-02T12:33:09.268Z,1.37
2023-02-02T12:36:01.306Z,1.38
2023-02-02T12:38:46.704Z,1.39
2023-02-02T12:41:18.920Z,1.41
2023-02-02T12:44:15.413Z,1.40
2023-02-02T12:47:15.200Z,1.37
2023-02-02T12:50:13.049Z,1.29
2023-02-02T12:53:07.372Z,1.23
2023-02-02T12:55:57.995Z,1.18
2023-02-02T12:58:40.490Z,1.16
2023-02-02T13:01:57.253Z,1.14
2023-02-02T13:04:52.692Z,1.12
2023-02-02T13:07:52.159Z,1.13
2023-02-02T13:10:38.401Z,1.16
2023-02-02T13:13:18.437Z,1.19
2023-02-02T13:15:48.776Z,1.20
2023-02-02T13:18:27.918Z,1.20
2023-02-02T13:21:10.999Z,1.20
2023-02-02T13:23:50.761Z,1.23
2023-02-02T13:26:20.946Z,1.25
2023-02-02T13:29:11.751Z,1.26
2023-02-02T13:32:23.854Z,1.28
2023-02-02T13:35:11.240Z,1.27
2023-02-02T13:37:39.940Z,1.25
2023-02-02T13:40:27.325Z,1.25
2023-02-02T13:43:04.238Z,1.26
2023-02-02T13:46:03.026Z,1.27
2023-02-02T13:49:08.643Z,1.26
2023-02-02T13:51:51.332Z,1.26
2023-02-02T13:55:01.080Z,1.25
2023-02-02T13:57:46.296Z,1.23
2023-02-02T14:00:22.565Z,1.20
2023-02-02T14:03:04.171Z,1.18
2023-02-02T14:05:38.636Z,1.16
2023-02-02T14:08:23.459Z,1.14
2023-02-02T14:10:57.630Z,1.11
2023-02-02T14:13:48.416Z,1.09
2023-02-02T14:32:00.599Z,1.27
2023-02-02T14:34:29.283Z,1.29
2023-02-02T14:37:24.089Z,1.25
2023-02-02T14:40:10.788Z,1.20
2023-02-02T14:43:22.083Z,1.14
2023-02-02T14:46:13.114Z,1.08
2023-02-02T14:48:50.121Z,1.01
2023-02-02T14:51:29.575Z,0.95
2023-02-02T14:54:05.248Z,0.90
2023-02-02T14:56:50.008Z,0.88
2023-02-02T14:59:38.801Z,0.87
2023-02-02T15:02:20.013Z,0.85
2023-02-02T15:04:49.158Z,0.83
2023-02-02T15:07:23.904Z,0.81
2023-02-02T15:09:56.782Z,0.77
2023-02-02T15:12:40.124Z,0.72
2023-02-02T18:25:53.264Z,-0.66
2023-02-02T18:28:21.845Z,-0.51
2023-02-02T18:30:50.691Z,-0.46
2023-02-02T18:33:20.273Z,-0.41
2023-02-02T18:35:49.379Z,-0.35
2023-02-02T18:38:19.894Z,-0.31
2023-02-02T18:40:56.281Z,-0.27
2023-02-02T18:43:26.911Z,-0.23
2023-02-02T18:46:02.799Z,-0.18
2023-02-02T18:48:31.959Z,-0.14
2023-02-02T18:51:07.537Z,-0.11
2023-02-02T18:53:36.475Z,-0.07
2023-02-02T18:56:08.921Z,-0.04
2023-02-02T18:58:38.501Z,-0.02
2023-02-02T19:01:10.944Z,0.02
2023-02-02T19:03:40.582Z,0.06
2023-02-02T19:06:28.056Z,0.09
2023-02-02T19:09:00.624Z,0.11
2023-02-02T19:11:43.236Z,0.14
2023-02-02T19:14:15.848Z,0.18
2023-02-02T19:16:46.452Z,0.22
2023-02-02T19:19:25.252Z,0.26
2023-02-02T19:21:56.401Z,0.31
2023-02-02T19:24:26.917Z,0.34
2023-02-02T19:26:55.717Z,0.38
2023-02-02T19:29:26.522Z,0.41
2023-02-02T19:32:07.633Z,0.43
2023-02-02T19:34:36.415Z,0.44
2023-02-02T19:37:20.418Z,0.45
2023-02-02T19:39:49.116Z,0.45
2023-02-02T19:42:18.556Z,0.45
2023-02-02T19:44:50.452Z,0.45
2023-02-02T19:47:28.340Z,0.44
2023-02-02T19:49:56.891Z,0.44
2023-02-02T19:52:26.009Z,0.43
2023-02-02T19:54:54.575Z,0.41
2023-02-02T19:57:36.969Z,0.40
2023-02-02T20:00:22.703Z,0.37
2023-02-02T20:02:59.988Z,0.36
2023-02-02T20:05:33.113Z,0.35
2023-02-02T20:08:06.218Z,0.34
2023-02-02T20:10:39.543Z,0.33
2023-02-02T20:13:31.785Z,0.32
2023-02-02T20:16:04.384Z,0.32
2023-02-02T20:18:44.900Z,0.31
2023-02-02T20:21:26.776Z,0.31
2023-02-02T20:23:55.180Z,0.30
2023-02-02T20:26:26.160Z,0.30
2023-02-02T20:28:56.627Z,0.29
2023-02-02T20:31:35.837Z,0.28
2023-02-02T20:34:33.134Z,0.28
2023-02-02T20:37:16.421Z,0.26
2023-02-02T20:39:50.423Z,0.25
2023-02-02T20:42:19.258Z,0.23
2023-02-02T20:44:47.849Z,0.22
2023-02-02T20:47:16.529Z,0.20
2023-02-02T20:49:45.216Z,0.18
2023-02-02T20:52:22.098Z,0.15
2023-02-02T20:54:51.510Z,0.12
2023-02-02T20:57:20.116Z,0.09
2023-02-02T20:59:48.616Z,0.06
2023-02-02T21:02:19.758Z,0.04
2023-02-02T21:04:48.450Z,0.02
2023-02-02T21:07:17.892Z,-0.00
2023-02-02T21:09:47.761Z,-0.02
2023-02-02T21:12:16.607Z,-0.03
2023-02-02T21:14:45.586Z,-0.03
2023-02-02T21:17:16.031Z,-0.03
2023-02-02T21:19:45.525Z,-0.05
2023-02-02T21:22:14.400Z,-0.05
2023-02-02T21:24:43.826Z,-0.06
2023-02-02T21:27:12.313Z,-0.07
2023-02-02T21:29:40.989Z,-0.08
2023-02-02T21:32:09.546Z,-0.09
2023-02-02T21:34:38.417Z,-0.10
2023-02-02T21:37:12.599Z,-0.12
2023-02-02T21:40:00.246Z,-0.14
2023-02-02T21:42:28.614Z,-0.17
2023-02-02T21:44:58.524Z,-0.19
2023-02-02T21:47:37.031Z,-0.25
2023-02-02T21:50:16.465Z,-0.31
2023-02-02T21:52:45.030Z,-0.34
2023-02-02T21:55:37.476Z,-0.39
2023-02-02T21:58:27.971Z,-0.46
2023-02-02T22:01:02.913Z,-0.51
2023-02-02T22:03:35.166Z,-0.55
2023-02-02T22:06:28.625Z,-0.57
